Time;durP1;ratioP1;P1;durP2;ratioP2;P2;SDS_P1;SDS_P2;PMS_P1;PMS_P2;Temp;Humidity;BMP_temperature;BMP_pressure;BME280_temperature;BME280_humidity;BME280_pressure;Samples;Min_cycle;Max_cycle;Signal;HPM_P1;HPM_P2
2022/07/18 00:00:47;;;;;;;;;;;19.10;60.60;;;;;;4997182;28;20370;-78
2022/07/18 00:03:16;;;;;;;;;;;19.00;60.50;;;;;;4998919;28;19913;-79
2022/07/18 00:05:49;;;;;;;;;;;19.00;61.00;;;;;;4993523;28;20378;-78
2022/07/18 00:08:26;;;;;;;;;;;19.00;61.10;;;;;;5007023;28;19916;-79
2022/07/18 00:10:53;;;;;;;;;;;18.90;61.30;;;;;;5003538;28;19921;-78
2022/07/18 00:13:20;;;;;;;;;;;18.90;61.10;;;;;;4991334;28;19916;-78
2022/07/18 00:15:47;;;;;;;;;;;18.90;60.90;;;;;;5007331;28;20513;-78
2022/07/18 00:18:12;;;;;;;;;;;18.90;60.90;;;;;;5004516;28;19918;-78
2022/07/18 00:20:40;;;;;;;;;;;18.80;61.20;;;;;;5012137;28;19991;-76
2022/07/18 00:23:09;;;;;;;;;;;18.80;61.20;;;;;;5004332;28;19933;-76
2022/07/18 00:25:35;;;;;;;;;;;18.80;61.20;;;;;;4996632;28;19913;-76
2022/07/18 00:28:01;;;;;;;;;;;18.80;61.40;;;;;;5000277;28;19924;-76
2022/07/18 00:30:27;;;;;;;;;;;18.80;61.40;;;;;;5000817;28;19921;-76
2022/07/18 00:32:55;;;;;;;;;;;18.70;61.60;;;;;;4998561;28;19924;-76
2022/07/18 00:35:23;;;;;;;;;;;18.70;61.90;;;;;;4998082;28;19909;-77
2022/07/18 00:37:55;;;;;;;;;;;18.70;62.30;;;;;;5004401;28;20000;-76
2022/07/18 00:40:21;;;;;;;;;;;18.70;62.20;;;;;;5001294;28;19958;-77
2022/07/18 00:42:49;;;;;;;;;;;18.70;62.10;;;;;;4994719;28;19926;-76
2022/07/18 00:45:19;;;;;;;;;;;18.70;62.20;;;;;;5006096;28;19917;-76
2022/07/18 00:47:45;;;;;;;;;;;18.60;61.80;;;;;;5005254;28;20227;-77
2022/07/18 00:50:12;;;;;;;;;;;18.60;61.70;;;;;;4997103;28;20374;-76
2022/07/18 00:52:41;;;;;;;;;;;18.50;61.90;;;;;;5005894;28;19955;-76
2022/07/18 00:55:08;;;;;;;;;;;18.60;62.50;;;;;;5005053;28;19910;-76
2022/07/18 00:57:41;;;;;;;;;;;18.60;62.10;;;;;;5002332;28;19909;-76
2022/07/18 01:02:59;;;;;;;;;;;18.50;62.10;;;;;;4999389;28;19968;-76
2022/07/18 01:05:25;;;;;;;;;;;18.50;62.00;;;;;;4997317;28;19917;-76
2022/07/18 01:08:03;;;;;;;;;;;18.50;61.90;;;;;;5001719;28;20278;-76
2022/07/18 01:10:39;;;;;;;;;;;18.50;61.90;;;;;;4994796;28;20644;-76
2022/07/18 01:13:05;;;;;;;;;;;18.50;61.80;;;;;;5005519;28;19910;-76
2022/07/18 01:15:32;;;;;;;;;;;18.40;61.80;;;;;;5001641;28;19909;-76
2022/07/18 01:18:07;;;;;;;;;;;18.30;61.80;;;;;;5001558;28;21274;-76
2022/07/18 01:20:43;;;;;;;;;;;18.30;62.10;;;;;;4992723;28;19909;-76
2022/07/18 01:23:15;;;;;;;;;;;18.20;62.20;;;;;;5006778;28;19913;-76
2022/07/18 01:25:53;;;;;;;;;;;18.20;62.10;;;;;;4997723;28;20006;-75
2022/07/18 01:28:22;;;;;;;;;;;18.20;62.10;;;;;;5000585;28;19913;-75
2022/07/18 01:30:53;;;;;;;;;;;18.20;62.10;;;;;;5003219;28;19963;-75
2022/07/18 01:33:21;;;;;;;;;;;18.20;62.40;;;;;;4995469;28;19924;-76
2022/07/18 01:35:51;;;;;;;;;;;18.30;62.20;;;;;;5003686;28;20051;-75
2022/07/18 01:38:22;;;;;;;;;;;18.20;62.20;;;;;;5003372;28;20246;-76
2022/07/18 01:40:52;;;;;;;;;;;18.20;62.20;;;;;;4997672;28;19910;-76
2022/07/18 01:43:20;;;;;;;;;;;18.20;62.30;;;;;;5002822;28;19920;-76
2022/07/18 01:45:56;;;;;;;;;;;18.10;62.50;;;;;;5003691;28;20005;-76
2022/07/18 01:48:38;;;;;;;;;;;18.00;62.90;;;;;;4997040;28;19996;-76
2022/07/18 01:51:09;;;;;;;;;;;17.90;62.40;;;;;;4998432;28;19909;-76
2022/07/18 01:53:35;;;;;;;;;;;17.90;62.50;;;;;;4998076;28;19989;-75
2022/07/18 01:56:01;;;;;;;;;;;17.80;62.90;;;;;;5005812;28;19918;-75
2022/07/18 01:58:26;;;;;;;;;;;17.80;63.10;;;;;;4995722;28;19940;-76
2022/07/18 02:00:52;;;;;;;;;;;17.80;63.70;;;;;;5009935;28;19968;-76
2022/07/18 02:03:22;;;;;;;;;;;17.70;63.90;;;;;;4999882;28;20729;-76
2022/07/18 02:05:50;;;;;;;;;;;17.70;64.00;;;;;;5003154;28;20479;-76
2022/07/18 02:08:19;;;;;;;;;;;17.70;63.70;;;;;;5008280;28;19913;-75
2022/07/18 02:10:45;;;;;;;;;;;17.80;63.50;;;;;;5008544;28;20471;-75
2022/07/18 02:13:12;;;;;;;;;;;17.80;63.90;;;;;;5003871;28;19909;-75
2022/07/18 02:15:40;;;;;;;;;;;17.80;63.70;;;;;;5003372;28;19917;-75
2022/07/18 02:18:08;;;;;;;;;;;17.80;63.30;;;;;;5005648;28;19941;-76
2022/07/18 02:20:48;;;;;;;;;;;17.80;63.10;;;;;;4997550;28;19917;-75
2022/07/18 02:23:14;;;;;;;;;;;17.80;64.00;;;;;;5003546;28;19976;-75
2022/07/18 02:25:43;;;;;;;;;;;17.80;64.00;;;;;;5001779;28;19921;-75
2022/07/18 02:28:19;;;;;;;;;;;17.80;63.70;;;;;;4996923;28;20220;-75
2022/07/18 02:30:49;;;;;;;;;;;17.70;63.50;;;;;;5002790;28;20692;-75
2022/07/18 02:33:16;;;;;;;;;;;17.70;63.70;;;;;;5004036;28;20570;-75
2022/07/18 02:35:42;;;;;;;;;;;17.60;63.60;;;;;;4994366;28;19917;-76
2022/07/18 02:38:14;;;;;;;;;;;17.60;63.70;;;;;;5007400;28;19932;-75
2022/07/18 02:40:45;;;;;;;;;;;17.60;63.60;;;;;;4990992;28;20023;-75
2022/07/18 02:43:11;;;;;;;;;;;17.60;63.60;;;;;;5002007;28;19971;-75
2022/07/18 02:45:36;;;;;;;;;;;17.60;63.50;;;;;;4998483;28;19922;-75
2022/07/18 02:48:10;;;;;;;;;;;17.60;63.70;;;;;;5002305;28;19917;-75
2022/07/18 02:50:35;;;;;;;;;;;17.50;63.70;;;;;;4995258;28;19922;-75
2022/07/18 02:53:07;;;;;;;;;;;17.50;64.40;;;;;;5006224;28;19930;-75
2022/07/18 02:55:34;;;;;;;;;;;17.50;64.60;;;;;;4998276;28;19989;-75
2022/07/18 02:58:02;;;;;;;;;;;17.50;64.90;;;;;;4995876;28;19917;-75
2022/07/18 03:00:32;;;;;;;;;;;17.50;64.60;;;;;;4993174;28;19916;-75
2022/07/18 03:03:01;;;;;;;;;;;17.50;64.50;;;;;;5007907;28;19918;-75
2022/07/18 03:05:36;;;;;;;;;;;17.60;64.70;;;;;;4998479;28;20334;-75
2022/07/18 03:08:02;;;;;;;;;;;17.50;64.60;;;;;;5004071;28;19914;-75
2022/07/18 03:10:29;;;;;;;;;;;17.50;64.70;;;;;;5000615;28;19952;-75
2022/07/18 03:12:58;;;;;;;;;;;17.50;64.70;;;;;;4999700;28;19937;-75
2022/07/18 03:15:34;;;;;;;;;;;17.50;65.00;;;;;;4999130;28;19910;-75
2022/07/18 03:18:11;;;;;;;;;;;17.40;64.80;;;;;;4995405;28;19913;-76
2022/07/18 03:20:37;;;;;;;;;;;17.40;65.10;;;;;;4999379;28;19912;-75
2022/07/18 03:23:12;;;;;;;;;;;17.40;65.20;;;;;;5003021;28;19928;-76
2022/07/18 03:25:41;;;;;;;;;;;17.40;65.00;;;;;;4992364;28;19909;-75
2022/07/18 03:28:15;;;;;;;;;;;17.40;65.20;;;;;;5004164;28;19989;-75
2022/07/18 03:30:42;;;;;;;;;;;17.40;64.90;;;;;;5005691;28;19920;-75
2022/07/18 03:33:11;;;;;;;;;;;17.40;65.00;;;;;;4998785;28;19910;-75
2022/07/18 03:35:38;;;;;;;;;;;17.40;65.30;;;;;;4999153;28;19932;-75
2022/07/18 03:38:06;;;;;;;;;;;17.50;65.50;;;;;;5001302;28;19909;-75
2022/07/18 03:40:34;;;;;;;;;;;17.50;65.60;;;;;;4999201;28;20246;-76
2022/07/18 03:43:05;;;;;;;;;;;17.60;65.50;;;;;;5006871;28;19925;-76
2022/07/18 03:45:30;;;;;;;;;;;17.50;65.70;;;;;;4998065;28;20251;-75
2022/07/18 03:48:02;;;;;;;;;;;17.60;65.90;;;;;;4999742;28;19997;-75
2022/07/18 03:50:29;;;;;;;;;;;17.60;66.00;;;;;;5006177;28;21405;-75
2022/07/18 03:53:01;;;;;;;;;;;17.70;65.90;;;;;;5004737;28;19913;-75
2022/07/18 03:55:28;;;;;;;;;;;17.70;65.50;;;;;;5005695;28;19917;-76
2022/07/18 03:57:59;;;;;;;;;;;17.80;65.60;;;;;;5002501;28;19956;-75
2022/07/18 04:00:31;;;;;;;;;;;17.80;66.30;;;;;;4999038;28;19971;-76
2022/07/18 04:02:58;;;;;;;;;;;17.90;67.40;;;;;;4999922;28;19957;-75
2022/07/18 04:05:32;;;;;;;;;;;17.90;66.80;;;;;;5002863;28;19917;-75
2022/07/18 04:07:57;;;;;;;;;;;17.90;67.00;;;;;;4998347;28;19924;-74
2022/07/18 04:10:23;;;;;;;;;;;18.00;67.20;;;;;;5000698;28;21173;-75
2022/07/18 04:12:49;;;;;;;;;;;18.10;67.40;;;;;;5008300;28;20381;-75
2022/07/18 04:15:20;;;;;;;;;;;18.10;67.60;;;;;;4996617;28;20607;-75
2022/07/18 04:17:48;;;;;;;;;;;18.20;67.70;;;;;;5004162;28;19917;-75
2022/07/18 04:20:16;;;;;;;;;;;18.30;67.50;;;;;;4994527;28;19909;-75
2022/07/18 04:23:01;;;;;;;;;;;18.30;67.50;;;;;;4999481;28;19984;-75
2022/07/18 04:25:37;;;;;;;;;;;18.30;67.30;;;;;;4995846;28;19936;-75
2022/07/18 04:28:03;;;;;;;;;;;18.40;67.30;;;;;;5003975;28;19921;-75
2022/07/18 04:30:30;;;;;;;;;;;18.40;67.60;;;;;;5001735;28;19918;-75
2022/07/18 04:32:55;;;;;;;;;;;18.40;68.20;;;;;;5006210;28;19929;-75
2022/07/18 04:35:28;;;;;;;;;;;18.40;66.80;;;;;;5003281;28;19914;-75
2022/07/18 04:37:56;;;;;;;;;;;18.40;66.90;;;;;;5008735;28;19916;-74
2022/07/18 04:40:24;;;;;;;;;;;18.50;66.20;;;;;;5006021;28;19913;-75
2022/07/18 04:43:05;;;;;;;;;;;18.40;66.00;;;;;;5001913;28;20804;-75
2022/07/18 04:45:34;;;;;;;;;;;18.30;65.90;;;;;;4992393;28;19922;-75
2022/07/18 04:48:01;;;;;;;;;;;18.40;65.70;;;;;;5002588;28;19917;-75
2022/07/18 04:50:33;;;;;;;;;;;18.60;65.80;;;;;;4993244;28;19917;-76
2022/07/18 04:53:02;;;;;;;;;;;18.90;65.00;;;;;;5002327;28;20227;-75
2022/07/18 04:55:33;;;;;;;;;;;19.10;64.90;;;;;;4996744;28;20426;-75
2022/07/18 04:58:03;;;;;;;;;;;19.10;65.10;;;;;;5000857;28;19913;-75
2022/07/18 05:00:29;;;;;;;;;;;19.10;65.60;;;;;;5005082;28;20040;-75
2022/07/18 05:02:57;;;;;;;;;;;19.30;63.70;;;;;;4997229;28;20007;-74
2022/07/18 05:05:29;;;;;;;;;;;19.50;63.40;;;;;;5008850;28;19909;-75
2022/07/18 05:07:55;;;;;;;;;;;19.60;64.80;;;;;;5015233;28;19920;-74
2022/07/18 05:10:23;;;;;;;;;;;19.40;65.50;;;;;;5009406;28;19913;-74
2022/07/18 05:12:50;;;;;;;;;;;19.50;65.60;;;;;;5000763;28;20000;-74
2022/07/18 05:15:20;;;;;;;;;;;19.50;64.70;;;;;;5003101;28;19963;-73
2022/07/18 05:17:46;;;;;;;;;;;19.60;63.60;;;;;;5003296;28;19978;-74
2022/07/18 05:20:14;;;;;;;;;;;19.80;63.60;;;;;;5003728;28;19905;-73
2022/07/18 05:22:40;;;;;;;;;;;19.90;63.80;;;;;;5006409;28;19913;-74
2022/07/18 05:25:07;;;;;;;;;;;19.90;63.90;;;;;;5005146;28;19921;-74
2022/07/18 05:27:34;;;;;;;;;;;19.90;61.90;;;;;;5009649;28;19913;-74
2022/07/18 05:30:04;;;;;;;;;;;20.00;61.00;;;;;;4999722;28;19909;-74
2022/07/18 05:32:32;;;;;;;;;;;19.90;61.40;;;;;;5005045;28;19958;-73
2022/07/18 05:35:05;;;;;;;;;;;20.00;61.40;;;;;;4999893;28;19918;-74
2022/07/18 05:37:31;;;;;;;;;;;20.00;61.90;;;;;;5005838;28;19914;-74
2022/07/18 05:39:57;;;;;;;;;;;20.40;60.60;;;;;;4997486;28;20564;-71
2022/07/18 05:42:22;;;;;;;;;;;20.30;60.70;;;;;;5001872;28;19936;-71
2022/07/18 05:44:48;;;;;;;;;;;20.50;61.80;;;;;;4994421;28;20062;-71
2022/07/18 05:47:14;;;;;;;;;;;20.70;61.10;;;;;;5000794;28;19917;-71
2022/07/18 05:49:40;;;;;;;;;;;20.80;61.40;;;;;;5011009;28;20410;-71
2022/07/18 05:52:07;;;;;;;;;;;21.10;61.30;;;;;;5004195;28;19974;-71
2022/07/18 05:54:32;;;;;;;;;;;21.30;61.30;;;;;;5003705;28;20350;-71
2022/07/18 05:56:58;;;;;;;;;;;21.40;61.20;;;;;;4994911;28;19917;-71
2022/07/18 05:59:25;;;;;;;;;;;21.30;61.90;;;;;;5005147;28;20450;-71
2022/07/18 06:01:50;;;;;;;;;;;21.60;62.60;;;;;;5004883;28;19925;-72
2022/07/18 06:04:17;;;;;;;;;;;21.90;62.10;;;;;;5009619;28;20466;-72
2022/07/18 06:06:43;;;;;;;;;;;22.30;61.90;;;;;;5010814;28;20001;-75
2022/07/18 06:09:10;;;;;;;;;;;23.00;60.50;;;;;;5007912;28;20509;-75
2022/07/18 06:11:36;;;;;;;;;;;23.80;59.10;;;;;;5002193;28;19945;-76
2022/07/18 06:14:02;;;;;;;;;;;23.70;58.80;;;;;;5005854;28;19913;-73
2022/07/18 06:16:32;;;;;;;;;;;23.40;59.00;;;;;;4994390;28;20009;-73
2022/07/18 06:18:59;;;;;;;;;;;24.30;58.20;;;;;;5008987;28;19995;-72
2022/07/18 06:21:25;;;;;;;;;;;23.80;58.40;;;;;;5004129;28;19925;-75
2022/07/18 06:23:52;;;;;;;;;;;23.60;58.80;;;;;;5003950;28;20029;-75
2022/07/18 06:26:17;;;;;;;;;;;23.10;59.60;;;;;;5003365;28;19955;-75
2022/07/18 06:28:44;;;;;;;;;;;23.50;59.50;;;;;;5003671;28;19913;-75
2022/07/18 06:31:11;;;;;;;;;;;23.60;59.10;;;;;;4997152;28;19948;-75
2022/07/18 06:33:37;;;;;;;;;;;24.00;57.70;;;;;;5005202;28;20271;-73
2022/07/18 06:36:03;;;;;;;;;;;24.40;57.10;;;;;;5011923;28;19910;-73
2022/07/18 06:38:29;;;;;;;;;;;24.40;56.70;;;;;;5003563;28;19996;-73
2022/07/18 06:40:55;;;;;;;;;;;24.90;56.20;;;;;;5004126;28;19925;-73
2022/07/18 06:43:20;;;;;;;;;;;25.60;55.30;;;;;;4998746;28;19925;-73
2022/07/18 06:45:47;;;;;;;;;;;26.20;53.80;;;;;;5001673;28;19971;-73
2022/07/18 06:48:13;;;;;;;;;;;26.70;53.30;;;;;;4996385;28;20272;-74
2022/07/18 06:50:40;;;;;;;;;;;26.60;53.30;;;;;;5012268;28;19916;-74
2022/07/18 06:53:06;;;;;;;;;;;26.50;52.60;;;;;;5004733;28;19913;-74
2022/07/18 06:55:32;;;;;;;;;;;27.30;51.50;;;;;;5001178;28;20004;-73
2022/07/18 06:57:57;;;;;;;;;;;27.10;51.40;;;;;;5003455;28;19924;-74
2022/07/18 07:00:24;;;;;;;;;;;27.70;50.70;;;;;;4997432;28;19974;-73
2022/07/18 07:02:50;;;;;;;;;;;28.60;49.90;;;;;;5000438;28;20647;-74
2022/07/18 07:05:17;;;;;;;;;;;29.10;48.90;;;;;;5000612;28;20001;-73
2022/07/18 07:07:44;;;;;;;;;;;28.20;48.30;;;;;;5002041;28;19909;-73
2022/07/18 07:10:09;;;;;;;;;;;27.70;49.60;;;;;;5003722;28;20461;-73
2022/07/18 07:12:39;;;;;;;;;;;28.90;47.80;;;;;;5001889;28;19992;-74
2022/07/18 07:15:05;;;;;;;;;;;28.20;47.80;;;;;;5005500;28;20333;-73
2022/07/18 07:17:30;;;;;;;;;;;28.90;47.10;;;;;;4999975;28;19956;-73
2022/07/18 07:19:57;;;;;;;;;;;29.20;47.20;;;;;;4997618;28;19949;-73
2022/07/18 07:22:24;;;;;;;;;;;28.60;46.40;;;;;;5001636;28;19913;-73
2022/07/18 07:24:52;;;;;;;;;;;28.40;47.40;;;;;;4992474;28;19914;-73
2022/07/18 07:27:24;;;;;;;;;;;28.70;47.50;;;;;;5000955;28;20004;-74
2022/07/18 07:29:50;;;;;;;;;;;29.00;45.80;;;;;;5000323;28;19917;-73
2022/07/18 07:32:16;;;;;;;;;;;28.70;44.50;;;;;;5005080;28;19910;-73
2022/07/18 07:34:47;;;;;;;;;;;28.20;46.10;;;;;;5008600;28;20372;-73
2022/07/18 07:37:17;;;;;;;;;;;28.30;46.40;;;;;;5000271;28;19914;-73
2022/07/18 07:39:42;;;;;;;;;;;28.90;45.70;;;;;;5007415;28;19918;-74
2022/07/18 07:42:09;;;;;;;;;;;29.50;45.50;;;;;;5003687;28;19921;-74
2022/07/18 07:44:34;;;;;;;;;;;28.60;45.70;;;;;;5002331;28;20298;-74
2022/07/18 07:47:01;;;;;;;;;;;29.60;44.40;;;;;;4999529;28;19918;-74
2022/07/18 07:49:28;;;;;;;;;;;29.70;44.10;;;;;;5001802;28;20797;-74
2022/07/18 07:51:53;;;;;;;;;;;30.60;41.70;;;;;;5002109;28;19994;-74
2022/07/18 07:54:19;;;;;;;;;;;31.90;41.80;;;;;;4998926;28;19990;-73
2022/07/18 07:56:45;;;;;;;;;;;31.60;42.60;;;;;;4998541;28;20306;-73
2022/07/18 07:59:11;;;;;;;;;;;32.00;41.40;;;;;;5001514;28;19941;-73
2022/07/18 08:01:38;;;;;;;;;;;31.70;42.00;;;;;;5001038;28;20019;-73
2022/07/18 08:04:04;;;;;;;;;;;30.40;41.70;;;;;;5001459;28;19924;-73
2022/07/18 08:06:31;;;;;;;;;;;29.90;43.20;;;;;;5005522;28;19913;-73
2022/07/18 08:08:58;;;;;;;;;;;30.40;42.70;;;;;;5002557;28;19917;-74
2022/07/18 08:11:30;;;;;;;;;;;31.30;40.70;;;;;;5002317;28;19917;-73
2022/07/18 08:13:56;;;;;;;;;;;30.00;42.20;;;;;;4991429;28;20181;-73
2022/07/18 08:16:22;;;;;;;;;;;30.80;42.30;;;;;;5001799;28;19916;-74
2022/07/18 08:18:48;;;;;;;;;;;29.90;41.80;;;;;;4996875;28;19909;-73
2022/07/18 08:21:14;;;;;;;;;;;29.90;41.50;;;;;;4996579;28;19947;-73
2022/07/18 08:23:39;;;;;;;;;;;28.90;42.50;;;;;;4996444;28;19924;-73
2022/07/18 08:26:06;;;;;;;;;;;29.50;42.30;;;;;;5008315;28;19913;-73
2022/07/18 08:28:31;;;;;;;;;;;30.00;42.00;;;;;;5003362;28;19932;-73
2022/07/18 08:31:00;;;;;;;;;;;30.50;41.90;;;;;;5003096;28;20235;-73
2022/07/18 08:33:27;;;;;;;;;;;31.00;41.00;;;;;;4998772;28;19944;-73
2022/07/18 08:35:58;;;;;;;;;;;30.30;40.30;;;;;;5002264;28;19909;-73
2022/07/18 08:38:27;;;;;;;;;;;30.60;41.20;;;;;;5009120;28;19997;-73
2022/07/18 08:40:53;;;;;;;;;;;31.00;39.50;;;;;;5003616;28;19940;-73
2022/07/18 08:43:19;;;;;;;;;;;30.40;40.30;;;;;;4997836;28;19914;-73
2022/07/18 08:45:46;;;;;;;;;;;31.20;40.30;;;;;;4999017;28;20551;-74
2022/07/18 08:48:16;;;;;;;;;;;31.20;41.00;;;;;;4998919;28;20387;-73
2022/07/18 08:50:45;;;;;;;;;;;31.00;39.90;;;;;;4988180;28;20670;-73
2022/07/18 08:53:13;;;;;;;;;;;31.20;39.70;;;;;;5002373;28;19988;-73
2022/07/18 08:55:38;;;;;;;;;;;31.30;39.80;;;;;;5001754;28;19916;-74
2022/07/18 08:58:05;;;;;;;;;;;32.80;39.70;;;;;;5010088;28;19909;-73
2022/07/18 09:00:30;;;;;;;;;;;34.60;38.50;;;;;;4991852;28;19945;-74
2022/07/18 09:03:01;;;;;;;;;;;35.90;37.10;;;;;;4997073;28;19917;-74
2022/07/18 09:05:28;;;;;;;;;;;36.50;36.50;;;;;;5004340;28;20334;-73
2022/07/18 09:08:07;;;;;;;;;;;37.00;36.00;;;;;;5005910;28;20005;-73
2022/07/18 09:10:51;;;;;;;;;;;33.60;36.90;;;;;;5003897;28;19917;-73
2022/07/18 09:13:37;;;;;;;;;;;33.30;38.70;;;;;;4991576;28;19955;-73
2022/07/18 09:16:08;;;;;;;;;;;33.40;37.70;;;;;;5008609;28;19967;-73
2022/07/18 09:18:37;;;;;;;;;;;33.60;38.00;;;;;;4993827;28;19987;-73
2022/07/18 09:21:05;;;;;;;;;;;32.30;38.40;;;;;;4995413;28;19928;-73
2022/07/18 09:23:32;;;;;;;;;;;33.10;38.20;;;;;;4995031;28;19922;-73
2022/07/18 09:25:59;;;;;;;;;;;34.40;37.60;;;;;;4999859;28;20308;-73
2022/07/18 09:28:25;;;;;;;;;;;34.10;36.50;;;;;;5001494;28;19918;-72
2022/07/18 09:30:51;;;;;;;;;;;32.80;37.10;;;;;;4994851;28;20525;-72
2022/07/18 09:33:16;;;;;;;;;;;32.70;37.50;;;;;;4998054;28;19953;-72
2022/07/18 09:35:44;;;;;;;;;;;34.50;36.80;;;;;;5003693;28;19975;-72
2022/07/18 09:38:11;;;;;;;;;;;31.90;37.50;;;;;;4987602;28;19939;-72
2022/07/18 09:40:37;;;;;;;;;;;31.40;38.70;;;;;;5006082;28;19957;-72
2022/07/18 09:43:23;;;;;;;;;;;33.60;38.50;;;;;;4999524;28;19975;-72
2022/07/18 09:45:49;;;;;;;;;;;35.90;37.40;;;;;;4999998;28;19940;-72
2022/07/18 09:48:16;;;;;;;;;;;36.30;35.30;;;;;;5001756;28;19940;-72
2022/07/18 09:50:48;;;;;;;;;;;35.60;35.40;;;;;;4995391;28;19972;-72
2022/07/18 09:53:25;;;;;;;;;;;33.40;36.50;;;;;;4995272;28;19913;-72
2022/07/18 09:55:51;;;;;;;;;;;32.70;36.20;;;;;;5001266;28;20754;-72
2022/07/18 09:58:19;;;;;;;;;;;34.60;36.00;;;;;;5004852;28;19932;-72
2022/07/18 10:00:45;;;;;;;;;;;36.20;34.40;;;;;;5002620;28;19963;-72
2022/07/18 10:03:10;;;;;;;;;;;34.30;34.80;;;;;;4995351;28;19921;-72
2022/07/18 10:05:38;;;;;;;;;;;34.50;36.40;;;;;;4998898;28;19932;-71
2022/07/18 10:08:14;;;;;;;;;;;34.60;35.70;;;;;;4998025;28;20003;-71
2022/07/18 10:10:41;;;;;;;;;;;31.70;36.50;;;;;;4998901;28;19913;-72
2022/07/18 10:13:07;;;;;;;;;;;33.10;36.30;;;;;;4991378;28;20230;-72
2022/07/18 10:15:34;;;;;;;;;;;33.20;36.50;;;;;;4995210;28;20442;-72
2022/07/18 10:18:00;;;;;;;;;;;32.50;35.30;;;;;;5004463;28;19913;-72
2022/07/18 10:20:31;;;;;;;;;;;33.30;36.00;;;;;;4996314;28;19917;-72
2022/07/18 10:22:58;;;;;;;;;;;34.50;34.80;;;;;;5002253;28;19925;-72
2022/07/18 10:25:24;;;;;;;;;;;33.30;35.30;;;;;;5006978;28;19921;-72
2022/07/18 10:28:00;;;;;;;;;;;34.30;35.50;;;;;;4998240;28;19957;-72
2022/07/18 10:30:29;;;;;;;;;;;34.10;35.80;;;;;;4995717;28;20016;-72
2022/07/18 10:32:55;;;;;;;;;;;35.20;35.20;;;;;;4998481;28;19924;-71
2022/07/18 10:35:40;;;;;;;;;;;35.50;34.80;;;;;;4996424;28;19910;-71
2022/07/18 10:38:22;;;;;;;;;;;36.50;33.90;;;;;;5006036;28;20271;-72
2022/07/18 10:41:02;;;;;;;;;;;37.60;33.80;;;;;;4989545;28;19967;-72
2022/07/18 10:43:30;;;;;;;;;;;38.10;34.00;;;;;;4997273;28;19928;-72
2022/07/18 10:45:58;;;;;;;;;;;33.70;34.10;;;;;;5005512;28;20427;-72
2022/07/18 10:48:50;;;;;;;;;;;32.00;36.00;;;;;;4999144;28;20004;-72
2022/07/18 10:51:16;;;;;;;;;;;32.70;35.90;;;;;;4995658;28;20027;-72
2022/07/18 10:53:55;;;;;;;;;;;35.30;34.90;;;;;;5004672;28;19914;-72
2022/07/18 10:56:40;;;;;;;;;;;35.90;33.80;;;;;;4992482;28;20286;-72
2022/07/18 10:59:20;;;;;;;;;;;35.40;35.00;;;;;;4999924;28;19931;-72
2022/07/18 11:01:49;;;;;;;;;;;36.10;34.30;;;;;;4991573;28;19910;-72
2022/07/18 11:04:27;;;;;;;;;;;33.70;35.40;;;;;;5000411;28;19938;-72
2022/07/18 11:06:54;;;;;;;;;;;33.10;35.60;;;;;;5005645;28;19952;-72
2022/07/18 11:09:50;;;;;;;;;;;32.50;35.60;;;;;;5004089;28;20645;-71
2022/07/18 11:12:17;;;;;;;;;;;30.50;36.10;;;;;;4986159;28;19916;-73
2022/07/18 11:15:15;;;;;;;;;;;29.30;37.60;;;;;;5010456;28;20012;-73
2022/07/18 11:17:59;;;;;;;;;;;29.10;38.40;;;;;;4976568;28;19988;-74
2022/07/18 11:20:29;;;;;;;;;;;28.80;38.10;;;;;;4998277;28;20483;-74
2022/07/18 11:22:56;;;;;;;;;;;29.20;38.40;;;;;;5001259;28;19913;-75
2022/07/18 11:25:24;;;;;;;;;;;29.30;37.50;;;;;;5006170;28;19913;-75
2022/07/18 11:27:52;;;;;;;;;;;29.50;38.30;;;;;;5007507;28;20429;-75
2022/07/18 11:30:22;;;;;;;;;;;29.30;37.70;;;;;;5001917;28;19952;-73
2022/07/18 11:32:49;;;;;;;;;;;29.70;37.60;;;;;;5008276;28;19988;-75
2022/07/18 11:35:20;;;;;;;;;;;29.80;38.20;;;;;;5005268;28;19947;-73
2022/07/18 11:37:48;;;;;;;;;;;30.00;37.80;;;;;;5012043;28;20381;-73
2022/07/18 11:40:14;;;;;;;;;;;30.40;37.20;;;;;;4999225;28;20255;-73
2022/07/18 11:42:40;;;;;;;;;;;30.30;36.80;;;;;;4999749;28;19919;-75
2022/07/18 11:45:07;;;;;;;;;;;30.20;37.30;;;;;;4995766;28;19918;-75
2022/07/18 11:47:44;;;;;;;;;;;29.40;37.70;;;;;;5000133;28;19910;-75
2022/07/18 11:50:12;;;;;;;;;;;29.00;37.20;;;;;;5001067;28;19910;-75
2022/07/18 11:52:40;;;;;;;;;;;28.70;38.00;;;;;;5007320;28;19910;-76
2022/07/18 11:55:06;;;;;;;;;;;28.50;38.20;;;;;;4999632;28;19914;-75
2022/07/18 11:57:33;;;;;;;;;;;28.90;38.40;;;;;;4999973;28;19952;-75
2022/07/18 12:00:00;;;;;;;;;;;28.90;37.90;;;;;;5005528;28;20614;-75
2022/07/18 12:02:25;;;;;;;;;;;29.10;38.20;;;;;;4994665;28;19921;-75
2022/07/18 12:04:52;;;;;;;;;;;29.40;37.60;;;;;;4995721;28;19940;-75
2022/07/18 12:07:24;;;;;;;;;;;29.40;37.90;;;;;;4997226;28;19921;-75
2022/07/18 12:09:50;;;;;;;;;;;29.10;37.60;;;;;;4999002;28;19910;-75
2022/07/18 12:12:19;;;;;;;;;;;28.80;37.80;;;;;;5005718;28;20000;-75
2022/07/18 12:14:54;;;;;;;;;;;28.80;39.00;;;;;;5002081;28;20464;-75
2022/07/18 12:17:20;;;;;;;;;;;28.60;37.90;;;;;;4989466;28;19910;-75
2022/07/18 12:19:48;;;;;;;;;;;28.50;38.10;;;;;;5011239;28;19913;-75
2022/07/18 12:22:19;;;;;;;;;;;28.80;37.90;;;;;;4996905;28;19916;-75
2022/07/18 12:24:57;;;;;;;;;;;29.10;37.70;;;;;;5006046;28;19913;-75
2022/07/18 12:27:24;;;;;;;;;;;29.00;38.00;;;;;;4998128;28;20519;-75
2022/07/18 12:29:53;;;;;;;;;;;29.10;37.20;;;;;;4995224;28;19909;-75
2022/07/18 12:32:23;;;;;;;;;;;28.70;37.40;;;;;;4998657;28;19910;-75
2022/07/18 12:35:03;;;;;;;;;;;28.70;37.70;;;;;;5008891;28;19941;-75
2022/07/18 12:37:30;;;;;;;;;;;28.90;37.90;;;;;;5008011;28;19940;-75
2022/07/18 12:40:00;;;;;;;;;;;29.00;38.40;;;;;;4998526;28;21351;-75
2022/07/18 12:42:27;;;;;;;;;;;29.00;37.20;;;;;;5001592;28;19928;-75
2022/07/18 12:44:52;;;;;;;;;;;29.10;37.70;;;;;;4998905;28;20738;-75
2022/07/18 12:47:18;;;;;;;;;;;29.30;37.20;;;;;;4988820;28;19910;-75
2022/07/18 12:49:46;;;;;;;;;;;29.00;37.70;;;;;;4994107;28;19972;-75
2022/07/18 12:52:13;;;;;;;;;;;29.30;38.10;;;;;;5007097;28;19910;-75
2022/07/18 12:54:40;;;;;;;;;;;29.60;37.70;;;;;;4995968;28;19922;-74
2022/07/18 12:57:06;;;;;;;;;;;29.30;37.00;;;;;;5000386;28;19920;-75
2022/07/18 12:59:34;;;;;;;;;;;29.10;37.20;;;;;;5005849;28;19920;-75
2022/07/18 13:02:05;;;;;;;;;;;29.00;37.80;;;;;;4996179;28;19972;-75
2022/07/18 13:04:31;;;;;;;;;;;29.30;37.70;;;;;;4993200;28;20283;-75
2022/07/18 13:06:59;;;;;;;;;;;29.50;37.40;;;;;;4998687;28;19921;-73
2022/07/18 13:09:24;;;;;;;;;;;29.50;37.50;;;;;;5001131;28;19917;-73
2022/07/18 13:11:52;;;;;;;;;;;29.90;37.30;;;;;;4999548;28;19910;-73
2022/07/18 13:14:17;;;;;;;;;;;30.10;36.70;;;;;;5000551;28;19913;-73
2022/07/18 13:16:49;;;;;;;;;;;30.00;36.90;;;;;;4990102;28;19917;-73
2022/07/18 13:19:15;;;;;;;;;;;30.10;37.00;;;;;;5001812;28;19928;-73
2022/07/18 13:21:41;;;;;;;;;;;29.80;36.70;;;;;;5003119;28;20286;-72
2022/07/18 13:24:07;;;;;;;;;;;30.00;37.00;;;;;;5009667;28;19913;-75
2022/07/18 13:26:35;;;;;;;;;;;29.90;37.20;;;;;;5006251;28;19921;-75
2022/07/18 13:29:02;;;;;;;;;;;29.50;36.80;;;;;;5000968;28;20023;-75
2022/07/18 13:31:30;;;;;;;;;;;29.70;36.90;;;;;;4998423;28;19916;-75
2022/07/18 13:33:58;;;;;;;;;;;29.50;36.60;;;;;;5003216;28;20027;-75
2022/07/18 13:36:24;;;;;;;;;;;29.10;36.90;;;;;;5004831;28;19917;-76
2022/07/18 13:38:51;;;;;;;;;;;29.30;37.70;;;;;;5004350;28;19948;-73
2022/07/18 13:41:17;;;;;;;;;;;29.70;37.50;;;;;;5001703;28;19909;-73
2022/07/18 13:43:43;;;;;;;;;;;30.00;37.00;;;;;;4995814;28;19921;-73
2022/07/18 13:46:10;;;;;;;;;;;30.00;37.70;;;;;;5005795;28;19918;-73
2022/07/18 13:48:39;;;;;;;;;;;30.20;37.50;;;;;;5004441;28;19909;-73
2022/07/18 13:51:05;;;;;;;;;;;30.40;36.60;;;;;;5003777;28;19917;-73
2022/07/18 13:53:31;;;;;;;;;;;30.40;36.70;;;;;;5003552;28;19925;-73
2022/07/18 13:55:56;;;;;;;;;;;30.40;36.50;;;;;;4999768;28;19917;-73
2022/07/18 13:58:24;;;;;;;;;;;30.00;36.70;;;;;;5010044;28;19973;-72
2022/07/18 14:00:51;;;;;;;;;;;30.20;36.60;;;;;;5004876;28;19910;-75
2022/07/18 14:03:17;;;;;;;;;;;30.30;36.50;;;;;;4996123;28;19964;-75
2022/07/18 14:05:43;;;;;;;;;;;30.10;36.70;;;;;;5007090;28;19924;-73
2022/07/18 14:08:09;;;;;;;;;;;30.20;36.30;;;;;;5010521;28;19910;-73
2022/07/18 14:10:35;;;;;;;;;;;30.40;36.50;;;;;;5013956;28;19920;-73
2022/07/18 14:13:02;;;;;;;;;;;30.30;35.90;;;;;;4999713;28;20363;-73
2022/07/18 14:15:32;;;;;;;;;;;30.40;36.50;;;;;;4997694;28;19910;-73
2022/07/18 14:17:59;;;;;;;;;;;30.10;36.00;;;;;;4999226;28;20539;-73
2022/07/18 14:20:24;;;;;;;;;;;29.70;36.20;;;;;;5000302;28;19971;-73
2022/07/18 14:22:50;;;;;;;;;;;29.90;36.50;;;;;;5000263;28;19917;-73
2022/07/18 14:25:17;;;;;;;;;;;30.10;36.60;;;;;;5000540;28;19909;-72
2022/07/18 14:27:43;;;;;;;;;;;30.20;36.70;;;;;;4997218;28;20248;-73